CYTZ

Toronto/City Centre Airport

Toronto, , Canada
METAR CYTZ 161000Z AUTO 25018G26KT 9SM BKN100 M04/M09 A2984 RMK SLP112
Observed Flight Rules
Dec-16 @ 10:00 UTC (55 minutes ago) Visual Flight Rules
Wind Visibility Clouds
250° at 18 knots
 Gusting to 26 knots
9 miles
  • Broken at 10,000' AGL
Temperatures Readings
Current -4°C / 25°F
Dewpoint -9°C / 16°F
Humidity 69%
Altimeter 29.84" Hg
Pressure 1011.2 hPa
Elevation 77
METAR CYTZ 161000Z AUTO 25018G26KT 9SM BKN100 M04/M09 A2984 RMK SLP112
Observed Flight Rules
Dec-16 @ 10:00 UTC
(55 minutes ago)
VFR
Wind Visibility
250° at 18 knots
 Gusting to 26 knots
9 miles
Clouds
  • Broken at 10,000' AGL
Temperature Dewpoint
-4°C / 25°F -9°C / 16°F
Humidity Altimeter Pressure
69% 29.84" Hg 1011.2 hPa